Ellerslie, Georgia
Current Conditions -  °F | °C
As of 7:51 PM on Saturday 25 Oct 2014 (Local Time) from KCSG Reporting Station
Clear Clear  
Wind Chill: 69°   Ceiling: Unl
Heat Index: 69°   Visibility: 10mi
Dew Point: 50°   Wind: 3mph
Humidity: 51%   Direction: 330°NNW
Pressure: 30.02"   Gusts: NA
Location:  32.63°N, 84.8°W
Report Text: KCSG 252351Z 33003KT 10SM CLR 21/10 A3002 RMK AO2 SLP163 T02060100 10261 20206 53005
Loading
Personal Weather Stations






























Interactive Weather Map New forecast layout! Learn more

10-Day Weather Forecast

Advertisements
Track Severe Weather on mobile